Airfield :
LOGIN :

Register | Disclaimer

   EN    FR    IT 

 










Legend :    VFR   Marginal VFR   IFR   Intensive IFR   Very Intensive IFR
Visi :
Ceiling :
>= 8 km
>= 3000ft
5 to 8 km
1000 to 3000 ft
1500m to 5 km
500 to 1000 ft
800 to 1500m
200 to 500 ft
< 800m
< 200 ft
Symbols :   Thunderstorms  Fog  Heavy snow  Heavy precipitations  Wind > 20 kt
SIGMETs :     Misc.  Thunderstorms  Icing  Turbulence  Mountain Waves  Volcanic Ashes






- Airport Elevation : 1302 ft
- IATA code : GNB


LFLS - Grenoble / St. Geoirs

CURRENT METAR :
  • 011300Z AUTO 02006KT 350V050 9999 FEW024/// SCT030/// BKN038/// ///CB 20/13 Q1014 TEMPO 4000 SHRA

EXPIRED METARs :
  • 011230Z AUTO 13007KT 9999 FEW031/// BKN037/// BKN045/// ///CB 18/13 Q1014 TEMPO 4000 SHRA BECMG 34010KT
  • 011200Z AUTO 09009KT 9999 FEW029/// BKN037/// BKN049/// ///TCU 18/13 Q1014 TEMPO 4000 SHRA FEW035CB SCT040TCU BECMG 34010KT
  • 011130Z AUTO VRB02KT 9999 FEW028/// BKN034/// BKN048/// ///CB 19/13 Q1014 TEMPO 4000 SHRA
  • 011100Z AUTO 33006KT 260V040 9999 FEW024/// BKN047/// BKN060/// ///CB 19/14 Q1014 BECMG FEW020 BKN030
  • 011030Z AUTO 29008KT 9999 FEW021/// SCT029/// BKN049/// ///CB 17/13 Q1014 BECMG FEW020 BKN030

TAF AMD TAF LFLS
Valid from the 01 at 11:00 until the 02 at 09:00 UTC


011104Z 0111/0209 34010KT 9999 SCT020 BKN040
TEMPO 0111/0119 4000 SHRA FEW035CB SCT040TCU
BECMG 0117/0119 VRB02KT
PROB40
TEMPO 0203/0208 BKN011
ATIS : +33 4 76 65 55 89



MET'MAP, your aeronautical weather chart ! - Copyright ORBIFLY December 2007 - Disclaimer

ORBIFLY MET'MAP TEAM :

Programming & Development : Alexandra Zaïnal
Concept & original design : Baudouin d'Aumeries
Assistance for programming : Marc-Olivier Méhu
Technical & hardware support : Manuel Goepfert

Contact : metmap@orbifly.com




SOURCES & CREDITS :

   NOAA